Time;durP1;ratioP1;P1;durP2;ratioP2;P2;SDS_P1;SDS_P2;PMS_P1;PMS_P2;Temp;Humidity;BMP_temperature;BMP_pressure;BME280_temperature;BME280_humidity;BME280_pressure;Samples;Min_cycle;Max_cycle;Signal;HPM_P1;HPM_P2
2022/04/23 00:01:32;;;;;;;;;;;17.10;99.90;;;;;;5117456;28;19908;-47
2022/04/23 00:03:58;;;;;;;;;;;17.10;99.90;;;;;;5117398;28;20386;-43
2022/04/23 00:06:23;;;;;;;;;;;17.20;99.90;;;;;;5117052;28;20275;-45
2022/04/23 00:08:48;;;;;;;;;;;17.20;99.90;;;;;;5116705;28;19961;-43
2022/04/23 00:11:14;;;;;;;;;;;17.10;99.90;;;;;;5117372;28;20305;-42
2022/04/23 00:13:39;;;;;;;;;;;17.10;99.90;;;;;;5098781;28;20002;-42
2022/04/23 00:16:05;;;;;;;;;;;17.10;99.90;;;;;;5116900;28;19922;-45
2022/04/23 00:18:31;;;;;;;;;;;17.10;99.90;;;;;;5116805;28;20343;-42
2022/04/23 00:20:57;;;;;;;;;;;17.20;99.90;;;;;;5117084;28;20368;-42
2022/04/23 00:23:23;;;;;;;;;;;17.10;99.90;;;;;;5116677;28;20061;-44
2022/04/23 00:25:51;;;;;;;;;;;17.10;99.90;;;;;;5117091;28;19961;-43
2022/04/23 00:28:18;;;;;;;;;;;17.10;99.90;;;;;;5116304;28;19908;-43
2022/04/23 00:30:44;;;;;;;;;;;17.10;99.90;;;;;;5116076;28;19953;-42
2022/04/23 00:33:10;;;;;;;;;;;17.10;99.90;;;;;;5116439;28;19908;-45
2022/04/23 00:35:36;;;;;;;;;;;17.00;99.90;;;;;;5116174;28;20026;-43
2022/04/23 00:38:02;;;;;;;;;;;17.00;99.90;;;;;;5116364;28;19908;-42
2022/04/23 00:40:28;;;;;;;;;;;17.00;99.90;;;;;;5116382;28;19968;-43
2022/04/23 00:42:55;;;;;;;;;;;17.00;99.90;;;;;;5116310;28;20354;-44
2022/04/23 00:45:21;;;;;;;;;;;17.00;99.90;;;;;;5116251;28;19908;-47
2022/04/23 00:47:47;;;;;;;;;;;17.00;99.90;;;;;;5116191;28;19994;-45
2022/04/23 00:50:13;;;;;;;;;;;17.00;99.90;;;;;;5115959;28;19948;-43
2022/04/23 00:52:38;;;;;;;;;;;17.00;99.90;;;;;;5097931;28;19915;-42
2022/04/23 00:55:04;;;;;;;;;;;17.00;99.90;;;;;;5116114;28;19931;-43
2022/04/23 00:57:30;;;;;;;;;;;17.00;99.90;;;;;;5115643;28;20377;-44
2022/04/23 00:59:56;;;;;;;;;;;17.10;99.90;;;;;;5116018;28;19915;-43
2022/04/23 01:02:22;;;;;;;;;;;17.10;99.90;;;;;;5115954;28;19907;-42
2022/04/23 01:04:48;;;;;;;;;;;17.10;99.90;;;;;;5115542;28;19907;-43
2022/04/23 01:07:13;;;;;;;;;;;17.10;99.90;;;;;;5114712;28;19914;-43
2022/04/23 01:09:39;;;;;;;;;;;17.10;99.90;;;;;;5115603;28;19986;-48
2022/04/23 01:12:05;;;;;;;;;;;17.10;99.90;;;;;;5097550;28;20018;-43
2022/04/23 01:14:31;;;;;;;;;;;17.10;99.90;;;;;;5115656;28;19915;-46
2022/04/23 01:16:57;;;;;;;;;;;17.00;99.90;;;;;;5115589;28;19916;-44
2022/04/23 01:19:23;;;;;;;;;;;17.10;99.90;;;;;;5115598;28;19912;-42
2022/04/23 01:21:48;;;;;;;;;;;17.10;99.90;;;;;;5115301;28;19958;-45
2022/04/23 01:24:14;;;;;;;;;;;17.10;99.90;;;;;;5115306;28;19908;-44
2022/04/23 01:26:40;;;;;;;;;;;17.10;99.90;;;;;;5115536;28;19960;-43
2022/04/23 01:29:05;;;;;;;;;;;17.10;99.90;;;;;;5115172;28;19907;-44
2022/04/23 01:31:32;;;;;;;;;;;17.10;99.90;;;;;;5115241;28;19927;-43
2022/04/23 01:33:57;;;;;;;;;;;17.10;99.90;;;;;;5115407;28;19908;-45
2022/04/23 01:36:23;;;;;;;;;;;17.10;99.90;;;;;;5115242;28;19916;-44
2022/04/23 01:38:49;;;;;;;;;;;17.10;99.90;;;;;;5115262;28;19923;-44
2022/04/23 01:41:14;;;;;;;;;;;17.20;99.90;;;;;;5114990;28;19908;-43
2022/04/23 01:43:40;;;;;;;;;;;17.10;99.90;;;;;;5115131;28;19908;-45
2022/04/23 01:46:05;;;;;;;;;;;17.10;99.90;;;;;;5115209;28;19951;-43
2022/04/23 01:48:31;;;;;;;;;;;17.10;99.90;;;;;;5115099;28;19947;-44
2022/04/23 01:50:57;;;;;;;;;;;17.10;99.90;;;;;;5114803;28;20002;-44
2022/04/23 01:53:24;;;;;;;;;;;17.10;99.90;;;;;;5115278;28;20007;-48
2022/04/23 01:55:56;;;;;;;;;;;17.10;99.90;;;;;;5114610;28;19920;-44
2022/04/23 01:58:21;;;;;;;;;;;17.10;99.90;;;;;;5114712;28;19907;-42
2022/04/23 02:00:47;;;;;;;;;;;17.10;99.90;;;;;;5114848;28;19915;-45
2022/04/23 02:03:13;;;;;;;;;;;17.10;99.90;;;;;;5114900;28;20319;-47
2022/04/23 02:05:39;;;;;;;;;;;17.10;99.90;;;;;;5114880;28;19912;-44
2022/04/23 02:08:04;;;;;;;;;;;17.10;99.90;;;;;;5114720;28;19953;-44
2022/04/23 02:10:30;;;;;;;;;;;17.00;99.90;;;;;;5114698;28;20366;-43
2022/04/23 02:12:55;;;;;;;;;;;17.10;99.90;;;;;;5114709;28;19912;-45
2022/04/23 02:15:21;;;;;;;;;;;17.10;99.90;;;;;;5096477;28;19914;-45
2022/04/23 02:17:50;;;;;;;;;;;17.10;99.90;;;;;;5114266;28;19923;-44
2022/04/23 02:20:16;;;;;;;;;;;17.00;99.90;;;;;;5114572;28;20350;-43
2022/04/23 02:22:42;;;;;;;;;;;17.10;99.90;;;;;;5114668;28;19914;-44
2022/04/23 02:25:08;;;;;;;;;;;17.10;99.90;;;;;;5114367;28;19908;-47
2022/04/23 02:27:43;;;;;;;;;;;17.00;99.90;;;;;;5114590;28;20362;-43
2022/04/23 02:30:09;;;;;;;;;;;17.00;99.90;;;;;;5114840;28;19915;-45
2022/04/23 02:32:34;;;;;;;;;;;17.00;99.90;;;;;;5114090;28;20045;-42
2022/04/23 02:35:00;;;;;;;;;;;17.00;99.90;;;;;;5114204;28;20375;-46
2022/04/23 02:37:26;;;;;;;;;;;17.00;99.90;;;;;;5114087;28;19916;-45
2022/04/23 02:39:52;;;;;;;;;;;17.00;99.90;;;;;;5114481;28;19914;-43
2022/04/23 02:42:17;;;;;;;;;;;17.00;99.90;;;;;;5114150;28;19966;-43
2022/04/23 02:44:45;;;;;;;;;;;17.00;99.90;;;;;;5114106;28;19908;-43
2022/04/23 02:47:11;;;;;;;;;;;16.90;99.90;;;;;;5114001;28;19908;-46
2022/04/23 02:49:36;;;;;;;;;;;17.00;99.90;;;;;;5114426;28;19927;-43
2022/04/23 02:52:02;;;;;;;;;;;16.90;99.90;;;;;;5113976;28;19908;-42
2022/04/23 02:54:28;;;;;;;;;;;17.00;99.90;;;;;;5114273;28;19943;-44
2022/04/23 02:56:54;;;;;;;;;;;17.10;99.90;;;;;;5114137;28;19974;-43
2022/04/23 02:59:19;;;;;;;;;;;17.10;99.90;;;;;;5114252;28;19912;-44
2022/04/23 03:01:45;;;;;;;;;;;17.00;99.90;;;;;;5113994;28;19908;-43
2022/04/23 03:04:11;;;;;;;;;;;17.00;99.90;;;;;;5114010;28;20366;-43
2022/04/23 03:06:36;;;;;;;;;;;17.10;99.90;;;;;;5113934;28;19955;-49
2022/04/23 03:09:03;;;;;;;;;;;17.10;99.90;;;;;;5113837;28;20006;-42
2022/04/23 03:11:31;;;;;;;;;;;17.00;99.90;;;;;;5113914;28;20439;-45
2022/04/23 03:13:58;;;;;;;;;;;17.00;99.90;;;;;;5113859;28;20007;-44
2022/04/23 03:16:24;;;;;;;;;;;17.00;99.90;;;;;;5113750;28;19916;-45
2022/04/23 03:18:51;;;;;;;;;;;17.00;99.90;;;;;;5113781;28;20362;-43
2022/04/23 03:21:16;;;;;;;;;;;17.10;99.90;;;;;;5114058;28;19915;-44
2022/04/23 03:23:42;;;;;;;;;;;17.00;99.90;;;;;;5114340;28;19908;-44
2022/04/23 03:26:07;;;;;;;;;;;17.00;99.90;;;;;;5113810;28;19912;-44
2022/04/23 03:28:33;;;;;;;;;;;17.00;99.90;;;;;;5113987;28;19908;-44
2022/04/23 03:30:58;;;;;;;;;;;17.00;99.90;;;;;;5098636;28;20243;-42
2022/04/23 03:33:24;;;;;;;;;;;17.00;99.90;;;;;;5117690;28;19908;-44
2022/04/23 03:35:49;;;;;;;;;;;17.00;99.90;;;;;;5117833;28;19915;-43
2022/04/23 03:38:16;;;;;;;;;;;17.10;99.90;;;;;;5117808;28;19934;-43
2022/04/23 03:40:42;;;;;;;;;;;17.10;99.90;;;;;;5117592;28;19915;-44
2022/04/23 03:43:07;;;;;;;;;;;17.10;99.90;;;;;;5117573;28;19907;-46
2022/04/23 03:45:33;;;;;;;;;;;17.10;99.90;;;;;;5117860;28;19907;-43
2022/04/23 03:48:00;;;;;;;;;;;17.10;99.90;;;;;;5099195;28;19911;-44
2022/04/23 03:50:26;;;;;;;;;;;17.10;99.90;;;;;;5117177;28;19947;-43
2022/04/23 03:52:51;;;;;;;;;;;17.10;99.90;;;;;;5116995;28;19983;-45
2022/04/23 03:55:17;;;;;;;;;;;17.10;99.90;;;;;;5117247;28;19953;-47
2022/04/23 03:57:44;;;;;;;;;;;17.20;99.90;;;;;;5117114;28;19919;-46
2022/04/23 04:00:10;;;;;;;;;;;17.10;99.90;;;;;;5117132;28;19915;-43
2022/04/23 04:02:35;;;;;;;;;;;17.10;99.90;;;;;;5116839;28;19907;-49
2022/04/23 04:05:01;;;;;;;;;;;17.10;99.90;;;;;;5117079;28;20342;-46
2022/04/23 04:07:27;;;;;;;;;;;17.10;99.90;;;;;;5116656;28;19991;-43
2022/04/23 04:09:52;;;;;;;;;;;17.00;99.90;;;;;;5117015;28;20022;-44
2022/04/23 04:12:18;;;;;;;;;;;17.10;99.90;;;;;;5116424;28;20398;-46
2022/04/23 04:14:43;;;;;;;;;;;17.00;99.90;;;;;;5116701;28;19908;-45
2022/04/23 04:17:09;;;;;;;;;;;17.00;99.90;;;;;;5116708;28;19919;-46
2022/04/23 04:19:35;;;;;;;;;;;17.00;99.90;;;;;;5116461;28;20255;-46
2022/04/23 04:22:04;;;;;;;;;;;17.00;99.90;;;;;;5116748;28;19960;-44
2022/04/23 04:24:30;;;;;;;;;;;17.00;99.90;;;;;;5116767;28;19912;-44
2022/04/23 04:26:56;;;;;;;;;;;17.10;99.90;;;;;;5116692;28;19908;-44
2022/04/23 04:29:21;;;;;;;;;;;17.10;99.90;;;;;;5116589;28;19908;-43
2022/04/23 04:31:47;;;;;;;;;;;17.10;99.90;;;;;;5116107;28;19923;-46
2022/04/23 04:34:16;;;;;;;;;;;17.00;99.90;;;;;;5116341;28;19908;-44
2022/04/23 04:36:42;;;;;;;;;;;17.00;99.90;;;;;;5115885;28;20384;-44
2022/04/23 04:39:08;;;;;;;;;;;17.10;99.90;;;;;;5116238;28;19908;-46
2022/04/23 04:41:35;;;;;;;;;;;17.10;99.90;;;;;;5116420;28;19911;-44
2022/04/23 04:44:01;;;;;;;;;;;17.10;99.90;;;;;;5116399;28;19912;-43
2022/04/23 04:46:27;;;;;;;;;;;17.10;99.90;;;;;;5115986;28;19915;-44
2022/04/23 04:48:53;;;;;;;;;;;17.10;99.90;;;;;;5116240;28;20362;-43
2022/04/23 04:51:18;;;;;;;;;;;17.10;99.90;;;;;;5116279;28;19966;-44
2022/04/23 04:53:44;;;;;;;;;;;17.00;99.90;;;;;;5116417;28;19947;-43
2022/04/23 04:56:10;;;;;;;;;;;17.10;99.90;;;;;;5116074;28;19915;-42
2022/04/23 04:58:36;;;;;;;;;;;17.10;99.90;;;;;;5115768;28;20339;-43
2022/04/23 05:01:01;;;;;;;;;;;17.10;99.90;;;;;;5115711;28;19987;-44
2022/04/23 05:03:27;;;;;;;;;;;17.10;99.90;;;;;;5115880;28;20269;-43
2022/04/23 05:05:52;;;;;;;;;;;17.10;99.90;;;;;;5115933;28;19908;-46
2022/04/23 05:08:18;;;;;;;;;;;17.10;99.90;;;;;;5115490;28;19912;-45
2022/04/23 05:10:43;;;;;;;;;;;17.10;99.90;;;;;;5115819;28;19914;-44
2022/04/23 05:13:09;;;;;;;;;;;17.10;99.90;;;;;;5115415;28;19994;-45
2022/04/23 05:15:35;;;;;;;;;;;17.10;99.90;;;;;;5115472;28;20289;-44
2022/04/23 05:18:00;;;;;;;;;;;17.10;99.90;;;;;;5115527;28;19962;-43
2022/04/23 05:20:26;;;;;;;;;;;17.00;99.90;;;;;;5115178;28;19907;-45
2022/04/23 05:22:51;;;;;;;;;;;17.10;99.90;;;;;;5115276;28;19933;-43
2022/04/23 05:25:17;;;;;;;;;;;17.10;99.90;;;;;;5115233;28;20354;-45
2022/04/23 05:27:42;;;;;;;;;;;17.10;99.90;;;;;;5115744;28;19907;-45
2022/04/23 05:30:08;;;;;;;;;;;17.10;99.90;;;;;;5114849;28;19937;-46
2022/04/23 05:32:35;;;;;;;;;;;17.10;99.90;;;;;;5115043;28;19950;-43
2022/04/23 05:35:00;;;;;;;;;;;17.10;99.90;;;;;;5097017;28;20296;-45
2022/04/23 05:37:26;;;;;;;;;;;17.10;99.90;;;;;;5114958;28;19915;-44
2022/04/23 05:39:52;;;;;;;;;;;17.10;99.90;;;;;;5130715;27;20456;-43
2022/04/23 05:42:17;;;;;;;;;;;17.10;99.90;;;;;;5115051;28;19933;-44
2022/04/23 05:44:43;;;;;;;;;;;17.10;99.90;;;;;;5114894;28;19958;-46
2022/04/23 05:47:08;;;;;;;;;;;17.10;99.90;;;;;;5114632;28;19958;-43
2022/04/23 05:49:37;;;;;;;;;;;17.00;99.90;;;;;;5114778;28;20319;-42
2022/04/23 05:52:03;;;;;;;;;;;17.10;99.90;;;;;;5114154;28;19915;-43
2022/04/23 05:54:28;;;;;;;;;;;17.10;99.90;;;;;;5114633;28;19912;-43
2022/04/23 05:56:53;;;;;;;;;;;17.10;99.90;;;;;;5114949;28;19923;-43
2022/04/23 05:59:19;;;;;;;;;;;17.00;99.90;;;;;;5114813;28;19912;-44
2022/04/23 06:01:44;;;;;;;;;;;17.00;99.90;;;;;;5114846;28;19912;-44
2022/04/23 06:04:11;;;;;;;;;;;17.00;99.90;;;;;;5114811;28;19998;-49
2022/04/23 06:06:36;;;;;;;;;;;17.00;99.90;;;;;;5114379;28;19907;-44
2022/04/23 06:09:02;;;;;;;;;;;17.00;99.90;;;;;;5114381;28;19969;-42
2022/04/23 06:11:27;;;;;;;;;;;17.10;99.90;;;;;;5114390;28;19915;-44
2022/04/23 06:13:53;;;;;;;;;;;17.10;99.90;;;;;;5114315;28;19908;-46
2022/04/23 06:16:18;;;;;;;;;;;17.00;99.90;;;;;;5114158;28;19920;-43
2022/04/23 06:18:44;;;;;;;;;;;17.00;99.90;;;;;;5114463;28;19958;-45
2022/04/23 06:21:10;;;;;;;;;;;17.00;99.90;;;;;;5114227;28;20414;-43
2022/04/23 06:23:35;;;;;;;;;;;17.00;99.90;;;;;;5114523;28;20002;-45
2022/04/23 06:26:01;;;;;;;;;;;17.10;99.90;;;;;;5114182;28;19946;-47
2022/04/23 06:28:26;;;;;;;;;;;17.00;99.90;;;;;;5114333;28;20045;-43
2022/04/23 06:30:52;;;;;;;;;;;17.10;99.90;;;;;;5113871;28;19960;-43
2022/04/23 06:33:17;;;;;;;;;;;17.10;99.90;;;;;;5114100;28;20322;-45
2022/04/23 06:35:43;;;;;;;;;;;17.10;99.90;;;;;;5114074;28;20312;-43
2022/04/23 06:38:09;;;;;;;;;;;17.10;99.90;;;;;;5114349;28;20243;-46
2022/04/23 06:40:35;;;;;;;;;;;17.10;99.90;;;;;;5114467;28;20282;-44
2022/04/23 06:43:01;;;;;;;;;;;17.10;99.90;;;;;;5114244;28;19908;-43
2022/04/23 06:45:26;;;;;;;;;;;17.10;99.90;;;;;;5114282;28;19953;-46
2022/04/23 06:48:02;;;;;;;;;;;17.10;99.90;;;;;;5113901;28;19908;-44
2022/04/23 06:50:28;;;;;;;;;;;17.10;99.90;;;;;;5114294;28;19908;-43
2022/04/23 06:52:53;;;;;;;;;;;17.10;99.90;;;;;;5113980;28;19961;-44
2022/04/23 06:55:19;;;;;;;;;;;17.10;99.90;;;;;;5113897;28;19959;-43
2022/04/23 06:57:44;;;;;;;;;;;17.00;99.90;;;;;;5114253;28;19922;-45
2022/04/23 07:00:11;;;;;;;;;;;17.00;99.90;;;;;;5114066;28;19942;-44
2022/04/23 07:02:37;;;;;;;;;;;17.10;99.90;;;;;;5113749;28;19912;-43
2022/04/23 07:05:02;;;;;;;;;;;17.10;99.90;;;;;;5115592;28;19952;-43
2022/04/23 07:07:28;;;;;;;;;;;17.10;99.90;;;;;;5117706;28;19908;-44
2022/04/23 07:09:53;;;;;;;;;;;17.10;99.90;;;;;;5117988;28;19960;-43
2022/04/23 07:12:19;;;;;;;;;;;17.00;99.90;;;;;;5117724;28;20349;-47
2022/04/23 07:14:44;;;;;;;;;;;17.00;99.90;;;;;;5117973;28;19908;-49
2022/04/23 07:17:10;;;;;;;;;;;17.10;99.90;;;;;;5117460;28;19920;-47
2022/04/23 07:19:39;;;;;;;;;;;17.00;99.90;;;;;;5117818;28;19908;-43
2022/04/23 07:22:05;;;;;;;;;;;17.00;99.90;;;;;;5117891;28;19908;-44
2022/04/23 07:24:30;;;;;;;;;;;17.00;99.90;;;;;;5117655;28;19908;-44
2022/04/23 07:26:59;;;;;;;;;;;17.00;99.90;;;;;;5117497;28;20270;-45
2022/04/23 07:29:24;;;;;;;;;;;17.00;99.90;;;;;;5117592;28;19908;-44
2022/04/23 07:31:50;;;;;;;;;;;17.00;99.90;;;;;;5117593;28;19944;-44
2022/04/23 07:39:44;;;;;;;;;;;17.00;99.90;;;;;;5117341;28;19999;-44
2022/04/23 07:42:10;;;;;;;;;;;17.10;99.90;;;;;;5117344;28;19953;-43
2022/04/23 07:44:39;;;;;;;;;;;17.10;99.90;;;;;;5117299;28;19908;-44
2022/04/23 07:47:05;;;;;;;;;;;17.00;99.90;;;;;;5117310;28;19915;-46
2022/04/23 07:49:31;;;;;;;;;;;17.00;99.90;;;;;;5116966;28;19935;-44
2022/04/23 07:51:56;;;;;;;;;;;17.00;99.90;;;;;;5117280;28;19915;-45
2022/04/23 07:54:22;;;;;;;;;;;17.00;99.90;;;;;;5116974;28;19907;-42
2022/04/23 07:56:48;;;;;;;;;;;17.00;99.90;;;;;;5117051;28;19916;-47
2022/04/23 07:59:13;;;;;;;;;;;17.10;99.90;;;;;;5098662;28;20283;-45
2022/04/23 08:01:39;;;;;;;;;;;17.10;99.90;;;;;;5117036;28;19919;-45
2022/04/23 08:04:04;;;;;;;;;;;17.10;99.90;;;;;;5116632;28;19907;-46
2022/04/23 08:06:31;;;;;;;;;;;17.10;99.90;;;;;;5116504;28;19908;-45
2022/04/23 08:08:56;;;;;;;;;;;17.10;99.90;;;;;;5098516;28;19959;-48
2022/04/23 08:11:25;;;;;;;;;;;17.20;99.90;;;;;;5116683;28;19960;-48
2022/04/23 08:13:51;;;;;;;;;;;17.20;99.90;;;;;;5116887;28;19908;-44
2022/04/23 08:16:16;;;;;;;;;;;17.20;99.90;;;;;;5115923;28;19938;-46
2022/04/23 08:18:42;;;;;;;;;;;17.20;99.90;;;;;;5116621;28;19981;-45
2022/04/23 08:21:08;;;;;;;;;;;17.10;99.90;;;;;;5098158;28;20342;-45
2022/04/23 08:23:34;;;;;;;;;;;17.20;99.90;;;;;;5116587;28;19915;-46
2022/04/23 08:26:00;;;;;;;;;;;17.10;99.90;;;;;;5116350;28;20342;-46
2022/04/23 08:31:12;;;;;;;;;;;17.10;99.90;;;;;;5116326;28;19926;-47
2022/04/23 08:36:22;;;;;;;;;;;17.10;99.90;;;;;;5116156;28;19922;-46
2022/04/23 08:38:48;;;;;;;;;;;17.20;99.90;;;;;;5097726;28;20274;-46
2022/04/23 08:41:13;;;;;;;;;;;17.20;99.90;;;;;;5116130;28;19949;-47
2022/04/23 08:43:41;;;;;;;;;;;17.20;99.90;;;;;;5116184;28;20226;-45
2022/04/23 08:46:06;;;;;;;;;;;17.20;99.90;;;;;;5116018;28;19966;-45
2022/04/23 08:48:36;;;;;;;;;;;17.20;99.90;;;;;;5115612;28;20346;-44
2022/04/23 08:51:03;;;;;;;;;;;17.20;99.90;;;;;;5097753;28;19908;-43
2022/04/23 08:53:31;;;;;;;;;;;17.20;99.90;;;;;;5115858;28;19918;-46
2022/04/23 08:55:57;;;;;;;;;;;17.20;99.90;;;;;;5115405;28;19931;-43
2022/04/23 08:58:23;;;;;;;;;;;17.20;99.90;;;;;;5115529;28;19907;-44
2022/04/23 09:00:48;;;;;;;;;;;17.20;99.90;;;;;;5115672;28;20557;-45
2022/04/23 09:03:17;;;;;;;;;;;17.20;99.90;;;;;;5131788;27;19908;-44
2022/04/23 09:05:43;;;;;;;;;;;17.20;99.90;;;;;;5115473;28;19908;-45
2022/04/23 09:08:09;;;;;;;;;;;17.20;99.90;;;;;;5115506;28;19999;-46
2022/04/23 09:11:01;;;;;;;;;;;17.20;99.90;;;;;;5115622;28;19950;-44
2022/04/23 09:13:29;;;;;;;;;;;17.20;99.90;;;;;;5112872;28;19908;-46
2022/04/23 09:24:17;;;;;;;;;;;17.20;99.90;;;;;;5115085;28;20270;-47
2022/04/23 09:26:43;;;;;;;;;;;17.20;99.90;;;;;;5114522;28;20003;-42
2022/04/23 09:29:17;;;;;;;;;;;17.20;99.90;;;;;;5114685;28;19911;-45
2022/04/23 09:31:43;;;;;;;;;;;17.20;99.90;;;;;;5115113;28;20057;-44
2022/04/23 09:34:16;;;;;;;;;;;17.20;99.90;;;;;;5114761;28;19964;-44
2022/04/23 09:36:55;;;;;;;;;;;17.20;99.90;;;;;;5114606;28;19916;-44
2022/04/23 09:39:31;;;;;;;;;;;17.20;99.90;;;;;;5114664;28;20020;-44
2022/04/23 09:42:15;;;;;;;;;;;17.20;99.90;;;;;;5114642;28;19959;-43
2022/04/23 09:44:42;;;;;;;;;;;17.30;99.90;;;;;;5114872;28;19908;-43
2022/04/23 09:47:07;;;;;;;;;;;17.20;99.90;;;;;;5114894;28;19942;-47
2022/04/23 09:49:34;;;;;;;;;;;17.30;99.90;;;;;;5114389;28;20358;-43
2022/04/23 09:52:02;;;;;;;;;;;17.20;99.90;;;;;;5096533;28;19955;-45
2022/04/23 09:54:29;;;;;;;;;;;17.20;99.90;;;;;;5114476;28;20002;-43
2022/04/23 09:56:55;;;;;;;;;;;17.20;99.90;;;;;;5114881;28;19915;-47
2022/04/23 09:59:21;;;;;;;;;;;17.20;99.90;;;;;;5114083;28;19908;-43
2022/04/23 10:01:47;;;;;;;;;;;17.30;99.90;;;;;;5114295;28;19954;-44
2022/04/23 10:04:14;;;;;;;;;;;17.20;99.90;;;;;;5114363;28;19961;-43
2022/04/23 10:06:43;;;;;;;;;;;17.30;99.90;;;;;;5114013;28;19918;-43
2022/04/23 10:09:08;;;;;;;;;;;17.20;99.90;;;;;;5096143;28;19912;-46
2022/04/23 10:11:37;;;;;;;;;;;17.20;99.90;;;;;;5114268;28;19983;-43
2022/04/23 10:14:03;;;;;;;;;;;17.20;99.90;;;;;;5114154;28;19908;-48
2022/04/23 10:16:29;;;;;;;;;;;17.20;99.90;;;;;;5114268;28;19920;-46
2022/04/23 10:18:55;;;;;;;;;;;17.20;99.90;;;;;;5096165;28;19915;-43
2022/04/23 10:21:33;;;;;;;;;;;17.20;99.90;;;;;;5114218;28;19966;-45
2022/04/23 10:24:13;;;;;;;;;;;17.20;99.90;;;;;;5114040;28;19912;-43
2022/04/23 10:26:41;;;;;;;;;;;17.40;99.90;;;;;;5114192;28;20010;-45
2022/04/23 10:29:08;;;;;;;;;;;17.40;99.90;;;;;;5113776;28;20014;-43
2022/04/23 10:31:34;;;;;;;;;;;17.40;99.90;;;;;;5114149;28;19927;-45
2022/04/23 10:34:00;;;;;;;;;;;17.30;99.90;;;;;;5113934;28;19907;-45
2022/04/23 10:36:27;;;;;;;;;;;17.30;99.90;;;;;;5113452;28;20426;-45
2022/04/23 10:39:11;;;;;;;;;;;17.40;99.90;;;;;;5117007;28;19908;-45
2022/04/23 10:41:37;;;;;;;;;;;17.40;99.90;;;;;;5120541;28;19908;-44
2022/04/23 10:44:03;;;;;;;;;;;17.40;99.90;;;;;;5120916;28;20350;-46
2022/04/23 10:46:37;;;;;;;;;;;17.40;99.90;;;;;;5120449;28;19915;-43
2022/04/23 10:49:13;;;;;;;;;;;17.50;99.90;;;;;;5120694;28;19908;-43
2022/04/23 10:51:47;;;;;;;;;;;17.50;99.90;;;;;;5120596;28;20354;-44
2022/04/23 10:54:15;;;;;;;;;;;17.40;99.90;;;;;;5102298;28;20471;-45
2022/04/23 10:56:41;;;;;;;;;;;17.40;99.90;;;;;;5120552;28;19915;-43
2022/04/23 10:59:27;;;;;;;;;;;17.50;99.90;;;;;;5120457;28;19915;-46
2022/04/23 11:01:52;;;;;;;;;;;17.50;99.90;;;;;;5120151;28;19908;-45
2022/04/23 11:04:21;;;;;;;;;;;17.40;99.90;;;;;;5121025;28;20355;-47
2022/04/23 11:12:33;;;;;;;;;;;17.50;99.90;;;;;;5120847;28;19918;-46
2022/04/23 11:15:00;;;;;;;;;;;17.50;99.90;;;;;;5120302;28;19908;-45
2022/04/23 11:17:30;;;;;;;;;;;17.50;99.90;;;;;;5120239;28;19916;-43
2022/04/23 11:19:56;;;;;;;;;;;17.50;99.90;;;;;;5120548;28;19912;-45
2022/04/23 11:22:22;;;;;;;;;;;17.50;99.90;;;;;;5102323;28;20390;-48
2022/04/23 11:24:48;;;;;;;;;;;17.50;99.90;;;;;;5120463;28;19908;-43
2022/04/23 11:27:26;;;;;;;;;;;17.50;99.90;;;;;;5119939;28;20358;-44
2022/04/23 11:29:52;;;;;;;;;;;17.40;99.90;;;;;;5120514;28;20057;-44
2022/04/23 11:32:28;;;;;;;;;;;17.50;99.90;;;;;;5102294;28;20309;-48
2022/04/23 11:34:57;;;;;;;;;;;17.40;99.90;;;;;;5120370;28;20268;-42
2022/04/23 11:37:29;;;;;;;;;;;17.40;99.90;;;;;;5120530;28;19916;-45
2022/04/23 11:40:08;;;;;;;;;;;17.50;99.90;;;;;;5120183;28;19907;-48
2022/04/23 11:42:39;;;;;;;;;;;17.40;99.90;;;;;;5119954;28;19908;-48
2022/04/23 11:45:05;;;;;;;;;;;17.40;99.90;;;;;;5120642;28;19915;-45
2022/04/23 11:47:31;;;;;;;;;;;17.40;99.90;;;;;;5120465;28;19908;-44
2022/04/23 11:50:13;;;;;;;;;;;17.40;99.90;;;;;;5100290;28;19914;-47
2022/04/23 11:52:42;;;;;;;;;;;17.50;99.90;;;;;;5098407;28;19939;-48
2022/04/23 11:55:18;;;;;;;;;;;17.50;99.90;;;;;;5117033;28;20353;-44
2022/04/23 11:57:51;;;;;;;;;;;17.50;99.90;;;;;;5116804;28;19916;-47
2022/04/23 12:00:18;;;;;;;;;;;17.50;99.90;;;;;;5116797;28;19915;-47
2022/04/23 12:02:44;;;;;;;;;;;17.50;99.90;;;;;;5098737;28;19951;-50
2022/04/23 12:05:10;;;;;;;;;;;17.50;99.90;;;;;;5116772;28;19908;-47
2022/04/23 12:07:35;;;;;;;;;;;17.50;99.90;;;;;;5116345;28;19908;-48
2022/04/23 12:10:03;;;;;;;;;;;17.50;99.90;;;;;;5116814;28;20347;-48
2022/04/23 12:12:30;;;;;;;;;;;17.50;99.90;;;;;;5116536;28;20370;-50
2022/04/23 12:14:56;;;;;;;;;;;17.50;99.90;;;;;;5116919;28;20247;-47
2022/04/23 12:17:30;;;;;;;;;;;17.50;99.90;;;;;;5116624;28;20273;-47
2022/04/23 12:19:56;;;;;;;;;;;17.50;99.90;;;;;;5116499;28;19908;-49
2022/04/23 12:22:31;;;;;;;;;;;17.60;99.90;;;;;;5116404;28;19946;-45
2022/04/23 12:25:09;;;;;;;;;;;17.50;99.90;;;;;;5116116;28;19916;-45
2022/04/23 12:27:53;;;;;;;;;;;17.60;99.90;;;;;;5116205;28;19933;-45
2022/04/23 12:41:52;;;;;;;;;;;17.80;99.90;;;;;;5115824;28;19961;-49
2022/04/23 12:44:19;;;;;;;;;;;17.70;99.90;;;;;;5115645;28;19908;-48
2022/04/23 12:46:58;;;;;;;;;;;17.80;99.90;;;;;;5115624;28;19994;-40
2022/04/23 12:49:23;;;;;;;;;;;17.70;99.90;;;;;;5115485;28;19908;-41
2022/04/23 12:51:50;;;;;;;;;;;17.60;99.90;;;;;;5115872;28;20014;-41
2022/04/23 12:54:16;;;;;;;;;;;17.60;99.90;;;;;;5115792;28;19908;-41
2022/04/23 12:56:41;;;;;;;;;;;17.60;99.90;;;;;;5115448;28;19916;-41
2022/04/23 12:59:07;;;;;;;;;;;17.60;99.90;;;;;;5115423;28;20412;-44
2022/04/23 13:01:32;;;;;;;;;;;17.70;99.90;;;;;;5096638;28;20407;-50
2022/04/23 13:03:59;;;;;;;;;;;17.80;99.90;;;;;;5096886;28;19908;-46
2022/04/23 13:09:09;;;;;;;;;;;17.80;99.90;;;;;;5115584;28;20280;-46
2022/04/23 13:11:34;;;;;;;;;;;17.90;99.90;;;;;;5115191;28;19994;-46
2022/04/23 13:14:01;;;;;;;;;;;17.90;99.90;;;;;;5115162;28;19992;-43
2022/04/23 13:16:28;;;;;;;;;;;17.90;99.90;;;;;;5115115;28;20415;-46
2022/04/23 13:18:55;;;;;;;;;;;17.90;99.90;;;;;;5097021;28;19916;-44
2022/04/23 13:21:24;;;;;;;;;;;17.90;99.90;;;;;;5115561;28;19907;-47
2022/04/23 13:23:51;;;;;;;;;;;17.90;99.90;;;;;;5115295;28;19991;-44
2022/04/23 13:26:17;;;;;;;;;;;17.90;99.90;;;;;;5096914;28;20297;-50
2022/04/23 13:28:43;;;;;;;;;;;17.80;99.90;;;;;;5114935;28;19908;-46
2022/04/23 13:31:09;;;;;;;;;;;17.80;99.90;;;;;;5114544;28;19927;-44
2022/04/23 13:33:34;;;;;;;;;;;17.80;99.90;;;;;;5114756;28;19908;-47
2022/04/23 13:36:00;;;;;;;;;;;17.80;99.90;;;;;;5114219;28;19912;-47
2022/04/23 13:38:25;;;;;;;;;;;17.80;99.90;;;;;;5096201;28;19998;-47
2022/04/23 13:40:51;;;;;;;;;;;17.80;99.90;;;;;;5114482;28;19994;-48
2022/04/23 13:43:17;;;;;;;;;;;17.80;99.90;;;;;;5113972;28;20383;-48
2022/04/23 13:45:42;;;;;;;;;;;17.80;99.90;;;;;;5114576;28;20345;-44
2022/04/23 13:48:09;;;;;;;;;;;17.80;99.90;;;;;;5096102;28;19907;-46
2022/04/23 13:50:34;;;;;;;;;;;17.70;99.90;;;;;;5114306;28;20301;-46
2022/04/23 13:53:00;;;;;;;;;;;17.70;99.90;;;;;;5114226;28;19907;-47
2022/04/23 13:55:25;;;;;;;;;;;17.70;99.90;;;;;;5114973;28;19948;-45
2022/04/23 13:57:51;;;;;;;;;;;17.70;99.90;;;;;;5114394;28;19957;-48
2022/04/23 14:00:17;;;;;;;;;;;17.70;99.90;;;;;;5114293;28;20397;-49
2022/04/23 14:10:55;;;;;;;;;;;17.80;99.90;;;;;;5114459;28;20012;-46
2022/04/23 14:13:21;;;;;;;;;;;17.80;99.90;;;;;;5114159;28;20319;-45
2022/04/23 14:15:46;;;;;;;;;;;17.80;99.90;;;;;;5096204;28;20318;-46
2022/04/23 14:18:12;;;;;;;;;;;17.80;99.90;;;;;;5114209;28;19916;-44
2022/04/23 14:20:38;;;;;;;;;;;17.80;99.90;;;;;;5113805;28;19911;-45
2022/04/23 14:23:03;;;;;;;;;;;17.80;99.90;;;;;;5114063;28;19908;-48
2022/04/23 14:25:29;;;;;;;;;;;17.70;99.90;;;;;;5114173;28;19980;-48
2022/04/23 14:27:54;;;;;;;;;;;17.80;99.90;;;;;;5113783;28;19908;-48
2022/04/23 14:30:20;;;;;;;;;;;17.80;99.90;;;;;;5113875;28;20269;-44
2022/04/23 14:32:46;;;;;;;;;;;17.70;99.90;;;;;;5114197;28;20343;-48
2022/04/23 14:35:11;;;;;;;;;;;17.70;99.90;;;;;;5113633;28;19998;-44
2022/04/23 14:37:36;;;;;;;;;;;17.70;99.90;;;;;;5113685;28;20006;-45
2022/04/23 14:40:03;;;;;;;;;;;17.70;99.90;;;;;;5095320;28;19912;-44
2022/04/23 14:42:30;;;;;;;;;;;17.80;99.90;;;;;;5113781;28;19916;-47
2022/04/23 14:44:55;;;;;;;;;;;17.80;99.90;;;;;;5113819;28;19908;-46
2022/04/23 14:47:21;;;;;;;;;;;17.80;99.90;;;;;;5113524;28;20258;-48
2022/04/23 14:49:46;;;;;;;;;;;17.70;99.90;;;;;;5113400;28;20032;-46
2022/04/23 14:54:56;;;;;;;;;;;17.70;99.90;;;;;;5113941;28;19930;-47
2022/04/23 14:57:22;;;;;;;;;;;17.70;99.90;;;;;;5114029;28;19916;-45
2022/04/23 14:59:47;;;;;;;;;;;17.70;99.90;;;;;;5114226;28;19916;-45
2022/04/23 15:02:13;;;;;;;;;;;17.80;99.90;;;;;;5113521;28;19958;-44
2022/04/23 15:04:38;;;;;;;;;;;17.70;99.90;;;;;;5113793;28;19912;-49